sensor_id;sensor_type;location;lat;lon;timestamp;P1;P2;P0
60245;PMS5003;46107;53.356;-1.524;2023-04-29T00:02:21;37;32;
60245;PMS5003;46107;53.356;-1.524;2023-04-29T00:04:49;34;33;
60245;PMS5003;46107;53.356;-1.524;2023-04-29T00:07:17;39;38;
60245;PMS5003;46107;53.356;-1.524;2023-04-29T00:09:45;39;34;
60245;PMS5003;46107;53.356;-1.524;2023-04-29T00:12:13;37;33;
60245;PMS5003;46107;53.356;-1.524;2023-04-29T00:14:41;32;30;
60245;PMS5003;46107;53.356;-1.524;2023-04-29T00:17:08;34;34;
60245;PMS5003;46107;53.356;-1.524;2023-04-29T00:19:36;38;34;
60245;PMS5003;46107;53.356;-1.524;2023-04-29T00:22:04;35;30;
60245;PMS5003;46107;53.356;-1.524;2023-04-29T00:24:31;31;29;
60245;PMS5003;46107;53.356;-1.524;2023-04-29T00:26:59;38;32;
60245;PMS5003;46107;53.356;-1.524;2023-04-29T00:29:26;41;37;
60245;PMS5003;46107;53.356;-1.524;2023-04-29T00:31:54;36;32;
60245;PMS5003;46107;53.356;-1.524;2023-04-29T00:34:21;36;35;
60245;PMS5003;46107;53.356;-1.524;2023-04-29T00:36:49;33;32;
60245;PMS5003;46107;53.356;-1.524;2023-04-29T00:39:17;41;36;
60245;PMS5003;46107;53.356;-1.524;2023-04-29T00:41:44;40;36;
60245;PMS5003;46107;53.356;-1.524;2023-04-29T00:44:12;35;33;
60245;PMS5003;46107;53.356;-1.524;2023-04-29T00:46:40;32;31;
60245;PMS5003;46107;53.356;-1.524;2023-04-29T00:49:08;34;31;
60245;PMS5003;46107;53.356;-1.524;2023-04-29T00:51:36;43;39;
60245;PMS5003;46107;53.356;-1.524;2023-04-29T00:54:07;36;33;
60245;PMS5003;46107;53.356;-1.524;2023-04-29T00:56:36;39;35;
60245;PMS5003;46107;53.356;-1.524;2023-04-29T00:59:06;42;40;
60245;PMS5003;46107;53.356;-1.524;2023-04-29T01:01:34;39;36;
60245;PMS5003;46107;53.356;-1.524;2023-04-29T01:04:03;40;38;
60245;PMS5003;46107;53.356;-1.524;2023-04-29T01:06:33;48;45;
60245;PMS5003;46107;53.356;-1.524;2023-04-29T01:09:16;46;41;
60245;PMS5003;46107;53.356;-1.524;2023-04-29T01:11:54;44;41;
60245;PMS5003;46107;53.356;-1.524;2023-04-29T01:14:32;44;40;
60245;PMS5003;46107;53.356;-1.524;2023-04-29T01:17:03;34;33;
60245;PMS5003;46107;53.356;-1.524;2023-04-29T01:19:38;41;40;
60245;PMS5003;46107;53.356;-1.524;2023-04-29T01:22:13;38;37;
60245;PMS5003;46107;53.356;-1.524;2023-04-29T01:24:41;45;41;
60245;PMS5003;46107;53.356;-1.524;2023-04-29T01:27:13;44;39;
60245;PMS5003;46107;53.356;-1.524;2023-04-29T01:29:57;44;37;
60245;PMS5003;46107;53.356;-1.524;2023-04-29T01:32:31;46;41;
60245;PMS5003;46107;53.356;-1.524;2023-04-29T01:35:09;35;33;
60245;PMS5003;46107;53.356;-1.524;2023-04-29T01:37:46;42;39;
60245;PMS5003;46107;53.356;-1.524;2023-04-29T01:40:24;41;37;
60245;PMS5003;46107;53.356;-1.524;2023-04-29T01:42:59;42;39;
60245;PMS5003;46107;53.356;-1.524;2023-04-29T01:45:28;44;42;
60245;PMS5003;46107;53.356;-1.524;2023-04-29T01:47:57;38;35;
60245;PMS5003;46107;53.356;-1.524;2023-04-29T01:50:26;41;37;
60245;PMS5003;46107;53.356;-1.524;2023-04-29T01:52:58;49;42;
60245;PMS5003;46107;53.356;-1.524;2023-04-29T01:55:26;46;39;
60245;PMS5003;46107;53.356;-1.524;2023-04-29T01:57:53;41;37;
60245;PMS5003;46107;53.356;-1.524;2023-04-29T02:00:21;37;37;
60245;PMS5003;46107;53.356;-1.524;2023-04-29T02:02:50;39;35;
60245;PMS5003;46107;53.356;-1.524;2023-04-29T02:05:17;39;39;
60245;PMS5003;46107;53.356;-1.524;2023-04-29T02:07:46;38;33;
60245;PMS5003;46107;53.356;-1.524;2023-04-29T02:10:13;37;35;
60245;PMS5003;46107;53.356;-1.524;2023-04-29T02:12:41;46;37;
60245;PMS5003;46107;53.356;-1.524;2023-04-29T02:15:09;37;35;
60245;PMS5003;46107;53.356;-1.524;2023-04-29T02:17:37;31;30;
60245;PMS5003;46107;53.356;-1.524;2023-04-29T02:20:05;39;32;
60245;PMS5003;46107;53.356;-1.524;2023-04-29T02:22:34;34;34;
60245;PMS5003;46107;53.356;-1.524;2023-04-29T02:25:02;39;37;
60245;PMS5003;46107;53.356;-1.524;2023-04-29T02:27:29;36;30;
60245;PMS5003;46107;53.356;-1.524;2023-04-29T02:29:58;40;38;
60245;PMS5003;46107;53.356;-1.524;2023-04-29T02:32:25;48;41;
60245;PMS5003;46107;53.356;-1.524;2023-04-29T02:34:53;33;30;
60245;PMS5003;46107;53.356;-1.524;2023-04-29T02:37:22;38;31;
60245;PMS5003;46107;53.356;-1.524;2023-04-29T02:39:49;34;31;
60245;PMS5003;46107;53.356;-1.524;2023-04-29T02:42:17;39;34;
60245;PMS5003;46107;53.356;-1.524;2023-04-29T02:44:44;41;35;
60245;PMS5003;46107;53.356;-1.524;2023-04-29T02:47:12;39;33;
60245;PMS5003;46107;53.356;-1.524;2023-04-29T02:49:39;38;35;
60245;PMS5003;46107;53.356;-1.524;2023-04-29T02:52:07;40;36;
60245;PMS5003;46107;53.356;-1.524;2023-04-29T02:54:35;38;36;
60245;PMS5003;46107;53.356;-1.524;2023-04-29T02:57:02;39;33;
60245;PMS5003;46107;53.356;-1.524;2023-04-29T02:59:30;37;34;
60245;PMS5003;46107;53.356;-1.524;2023-04-29T03:01:57;33;29;
60245;PMS5003;46107;53.356;-1.524;2023-04-29T03:04:25;35;31;
60245;PMS5003;46107;53.356;-1.524;2023-04-29T03:06:54;40;36;
60245;PMS5003;46107;53.356;-1.524;2023-04-29T03:09:21;30;28;
60245;PMS5003;46107;53.356;-1.524;2023-04-29T03:11:49;31;28;
60245;PMS5003;46107;53.356;-1.524;2023-04-29T03:14:17;37;33;
60245;PMS5003;46107;53.356;-1.524;2023-04-29T03:16:45;31;28;
60245;PMS5003;46107;53.356;-1.524;2023-04-29T03:19:12;38;31;
60245;PMS5003;46107;53.356;-1.524;2023-04-29T03:21:40;29;26;
60245;PMS5003;46107;53.356;-1.524;2023-04-29T03:24:08;31;27;
60245;PMS5003;46107;53.356;-1.524;2023-04-29T03:26:35;34;28;
60245;PMS5003;46107;53.356;-1.524;2023-04-29T03:29:03;26;22;
60245;PMS5003;46107;53.356;-1.524;2023-04-29T03:31:30;34;33;
60245;PMS5003;46107;53.356;-1.524;2023-04-29T03:33:57;33;25;
60245;PMS5003;46107;53.356;-1.524;2023-04-29T03:36:25;30;25;
60245;PMS5003;46107;53.356;-1.524;2023-04-29T03:38:53;23;23;
60245;PMS5003;46107;53.356;-1.524;2023-04-29T03:41:21;34;28;
60245;PMS5003;46107;53.356;-1.524;2023-04-29T03:43:48;28;26;
60245;PMS5003;46107;53.356;-1.524;2023-04-29T03:46:16;22;22;
60245;PMS5003;46107;53.356;-1.524;2023-04-29T03:48:43;28;25;
60245;PMS5003;46107;53.356;-1.524;2023-04-29T03:51:10;25;21;
60245;PMS5003;46107;53.356;-1.524;2023-04-29T03:53:38;25;22;
60245;PMS5003;46107;53.356;-1.524;2023-04-29T03:56:06;29;24;
60245;PMS5003;46107;53.356;-1.524;2023-04-29T03:58:34;27;25;
60245;PMS5003;46107;53.356;-1.524;2023-04-29T04:01:01;26;24;
60245;PMS5003;46107;53.356;-1.524;2023-04-29T04:03:29;30;26;
60245;PMS5003;46107;53.356;-1.524;2023-04-29T04:05:57;25;23;
60245;PMS5003;46107;53.356;-1.524;2023-04-29T04:08:25;24;21;
60245;PMS5003;46107;53.356;-1.524;2023-04-29T04:10:53;25;23;
60245;PMS5003;46107;53.356;-1.524;2023-04-29T04:13:20;19;19;
60245;PMS5003;46107;53.356;-1.524;2023-04-29T04:15:49;24;19;
60245;PMS5003;46107;53.356;-1.524;2023-04-29T04:18:16;18;17;
60245;PMS5003;46107;53.356;-1.524;2023-04-29T04:20:44;28;23;
60245;PMS5003;46107;53.356;-1.524;2023-04-29T04:23:11;27;24;
60245;PMS5003;46107;53.356;-1.524;2023-04-29T04:25:43;20;17;
60245;PMS5003;46107;53.356;-1.524;2023-04-29T04:28:11;21;19;
60245;PMS5003;46107;53.356;-1.524;2023-04-29T04:30:39;21;20;
60245;PMS5003;46107;53.356;-1.524;2023-04-29T04:33:06;21;18;
60245;PMS5003;46107;53.356;-1.524;2023-04-29T04:35:34;26;22;
60245;PMS5003;46107;53.356;-1.524;2023-04-29T04:38:02;26;25;
60245;PMS5003;46107;53.356;-1.524;2023-04-29T04:40:29;23;23;
60245;PMS5003;46107;53.356;-1.524;2023-04-29T04:42:57;25;21;
60245;PMS5003;46107;53.356;-1.524;2023-04-29T04:45:24;20;19;
60245;PMS5003;46107;53.356;-1.524;2023-04-29T04:47:54;25;22;
60245;PMS5003;46107;53.356;-1.524;2023-04-29T04:50:22;23;23;
60245;PMS5003;46107;53.356;-1.524;2023-04-29T04:52:49;27;25;
60245;PMS5003;46107;53.356;-1.524;2023-04-29T04:55:17;25;21;
60245;PMS5003;46107;53.356;-1.524;2023-04-29T04:57:45;27;23;
60245;PMS5003;46107;53.356;-1.524;2023-04-29T05:00:13;23;20;
60245;PMS5003;46107;53.356;-1.524;2023-04-29T05:02:40;31;24;
60245;PMS5003;46107;53.356;-1.524;2023-04-29T05:05:08;27;22;
60245;PMS5003;46107;53.356;-1.524;2023-04-29T05:07:36;22;20;
60245;PMS5003;46107;53.356;-1.524;2023-04-29T05:10:04;24;20;
60245;PMS5003;46107;53.356;-1.524;2023-04-29T05:12:33;28;24;
60245;PMS5003;46107;53.356;-1.524;2023-04-29T05:15:00;31;28;
60245;PMS5003;46107;53.356;-1.524;2023-04-29T05:17:28;26;23;
60245;PMS5003;46107;53.356;-1.524;2023-04-29T05:19:56;26;23;
60245;PMS5003;46107;53.356;-1.524;2023-04-29T05:22:24;27;26;
60245;PMS5003;46107;53.356;-1.524;2023-04-29T05:24:51;27;22;
60245;PMS5003;46107;53.356;-1.524;2023-04-29T05:27:18;26;23;
60245;PMS5003;46107;53.356;-1.524;2023-04-29T05:29:46;23;19;
60245;PMS5003;46107;53.356;-1.524;2023-04-29T05:32:13;23;22;
60245;PMS5003;46107;53.356;-1.524;2023-04-29T05:34:41;23;22;
60245;PMS5003;46107;53.356;-1.524;2023-04-29T05:37:08;22;20;
60245;PMS5003;46107;53.356;-1.524;2023-04-29T05:39:36;23;22;
60245;PMS5003;46107;53.356;-1.524;2023-04-29T05:42:03;21;21;
60245;PMS5003;46107;53.356;-1.524;2023-04-29T05:44:31;25;22;
60245;PMS5003;46107;53.356;-1.524;2023-04-29T05:46:59;28;21;
60245;PMS5003;46107;53.356;-1.524;2023-04-29T05:49:27;25;21;
60245;PMS5003;46107;53.356;-1.524;2023-04-29T05:51:54;24;22;
60245;PMS5003;46107;53.356;-1.524;2023-04-29T05:54:22;27;23;
60245;PMS5003;46107;53.356;-1.524;2023-04-29T05:56:50;22;22;
60245;PMS5003;46107;53.356;-1.524;2023-04-29T05:59:17;25;24;
60245;PMS5003;46107;53.356;-1.524;2023-04-29T06:01:45;23;22;
60245;PMS5003;46107;53.356;-1.524;2023-04-29T06:04:13;19;18;
60245;PMS5003;46107;53.356;-1.524;2023-04-29T06:06:41;20;17;
60245;PMS5003;46107;53.356;-1.524;2023-04-29T06:09:09;18;16;
60245;PMS5003;46107;53.356;-1.524;2023-04-29T06:11:37;18;17;
60245;PMS5003;46107;53.356;-1.524;2023-04-29T06:14:04;18;18;
60245;PMS5003;46107;53.356;-1.524;2023-04-29T06:16:32;19;15;
60245;PMS5003;46107;53.356;-1.524;2023-04-29T06:18:59;19;19;
60245;PMS5003;46107;53.356;-1.524;2023-04-29T06:21:26;18;17;
60245;PMS5003;46107;53.356;-1.524;2023-04-29T06:23:54;16;16;
60245;PMS5003;46107;53.356;-1.524;2023-04-29T06:26:21;16;14;
60245;PMS5003;46107;53.356;-1.524;2023-04-29T06:28:49;21;15;
60245;PMS5003;46107;53.356;-1.524;2023-04-29T06:31:17;19;16;
60245;PMS5003;46107;53.356;-1.524;2023-04-29T06:33:44;19;14;
60245;PMS5003;46107;53.356;-1.524;2023-04-29T06:36:12;21;17;
60245;PMS5003;46107;53.356;-1.524;2023-04-29T06:38:40;16;16;
60245;PMS5003;46107;53.356;-1.524;2023-04-29T06:41:07;16;14;
60245;PMS5003;46107;53.356;-1.524;2023-04-29T06:43:35;10;10;
60245;PMS5003;46107;53.356;-1.524;2023-04-29T06:46:03;10;10;
60245;PMS5003;46107;53.356;-1.524;2023-04-29T06:48:31;11;11;
60245;PMS5003;46107;53.356;-1.524;2023-04-29T06:50:59;8;6;
60245;PMS5003;46107;53.356;-1.524;2023-04-29T06:53:26;6;6;
60245;PMS5003;46107;53.356;-1.524;2023-04-29T06:55:54;6;6;
60245;PMS5003;46107;53.356;-1.524;2023-04-29T06:58:21;2;2;
60245;PMS5003;46107;53.356;-1.524;2023-04-29T07:00:49;4;4;
60245;PMS5003;46107;53.356;-1.524;2023-04-29T07:03:17;6;5;
60245;PMS5003;46107;53.356;-1.524;2023-04-29T07:05:45;6;6;
60245;PMS5003;46107;53.356;-1.524;2023-04-29T07:08:13;6;5;
60245;PMS5003;46107;53.356;-1.524;2023-04-29T07:10:41;5;4;
60245;PMS5003;46107;53.356;-1.524;2023-04-29T07:13:12;3;3;
60245;PMS5003;46107;53.356;-1.524;2023-04-29T07:15:40;4;4;
60245;PMS5003;46107;53.356;-1.524;2023-04-29T07:18:08;12;12;
60245;PMS5003;46107;53.356;-1.524;2023-04-29T07:20:35;18;16;
60245;PMS5003;46107;53.356;-1.524;2023-04-29T07:23:02;15;14;
60245;PMS5003;46107;53.356;-1.524;2023-04-29T07:25:30;16;14;
60245;PMS5003;46107;53.356;-1.524;2023-04-29T07:27:59;14;14;
60245;PMS5003;46107;53.356;-1.524;2023-04-29T07:30:27;18;16;
60245;PMS5003;46107;53.356;-1.524;2023-04-29T07:32:55;12;12;
60245;PMS5003;46107;53.356;-1.524;2023-04-29T07:35:23;12;11;
60245;PMS5003;46107;53.356;-1.524;2023-04-29T07:37:51;14;14;
60245;PMS5003;46107;53.356;-1.524;2023-04-29T07:40:19;13;13;
60245;PMS5003;46107;53.356;-1.524;2023-04-29T07:42:47;16;14;
60245;PMS5003;46107;53.356;-1.524;2023-04-29T07:45:15;11;11;
60245;PMS5003;46107;53.356;-1.524;2023-04-29T07:47:42;12;10;
60245;PMS5003;46107;53.356;-1.524;2023-04-29T07:50:11;7;7;
60245;PMS5003;46107;53.356;-1.524;2023-04-29T07:52:39;11;10;
60245;PMS5003;46107;53.356;-1.524;2023-04-29T07:55:07;10;9;
60245;PMS5003;46107;53.356;-1.524;2023-04-29T07:57:35;10;10;
60245;PMS5003;46107;53.356;-1.524;2023-04-29T08:00:02;12;10;
60245;PMS5003;46107;53.356;-1.524;2023-04-29T08:02:30;14;10;
60245;PMS5003;46107;53.356;-1.524;2023-04-29T08:04:58;11;10;
60245;PMS5003;46107;53.356;-1.524;2023-04-29T08:07:25;12;9;
60245;PMS5003;46107;53.356;-1.524;2023-04-29T08:09:53;9;9;
60245;PMS5003;46107;53.356;-1.524;2023-04-29T08:12:22;7;6;
60245;PMS5003;46107;53.356;-1.524;2023-04-29T08:14:50;10;10;
60245;PMS5003;46107;53.356;-1.524;2023-04-29T08:17:17;9;8;
60245;PMS5003;46107;53.356;-1.524;2023-04-29T08:19:44;8;6;
60245;PMS5003;46107;53.356;-1.524;2023-04-29T08:22:12;3;3;
60245;PMS5003;46107;53.356;-1.524;2023-04-29T08:24:39;3;3;
60245;PMS5003;46107;53.356;-1.524;2023-04-29T08:27:07;4;4;
60245;PMS5003;46107;53.356;-1.524;2023-04-29T08:29:39;4;4;
60245;PMS5003;46107;53.356;-1.524;2023-04-29T08:32:07;4;4;
60245;PMS5003;46107;53.356;-1.524;2023-04-29T08:34:34;7;7;
60245;PMS5003;46107;53.356;-1.524;2023-04-29T08:37:06;6;5;
60245;PMS5003;46107;53.356;-1.524;2023-04-29T08:39:34;10;7;
60245;PMS5003;46107;53.356;-1.524;2023-04-29T08:42:06;5;5;
60245;PMS5003;46107;53.356;-1.524;2023-04-29T08:44:35;8;8;
60245;PMS5003;46107;53.356;-1.524;2023-04-29T08:47:03;8;7;
60245;PMS5003;46107;53.356;-1.524;2023-04-29T08:49:31;7;6;
60245;PMS5003;46107;53.356;-1.524;2023-04-29T08:51:59;10;9;
60245;PMS5003;46107;53.356;-1.524;2023-04-29T08:54:26;12;9;
60245;PMS5003;46107;53.356;-1.524;2023-04-29T08:56:54;11;9;
60245;PMS5003;46107;53.356;-1.524;2023-04-29T08:59:24;10;8;
60245;PMS5003;46107;53.356;-1.524;2023-04-29T09:01:54;9;9;
60245;PMS5003;46107;53.356;-1.524;2023-04-29T09:04:26;10;10;
60245;PMS5003;46107;53.356;-1.524;2023-04-29T09:07:03;10;9;
60245;PMS5003;46107;53.356;-1.524;2023-04-29T09:09:32;11;10;
60245;PMS5003;46107;53.356;-1.524;2023-04-29T09:12:01;16;14;
60245;PMS5003;46107;53.356;-1.524;2023-04-29T09:14:28;15;15;
60245;PMS5003;46107;53.356;-1.524;2023-04-29T09:16:57;18;13;
60245;PMS5003;46107;53.356;-1.524;2023-04-29T09:19:32;20;17;
60245;PMS5003;46107;53.356;-1.524;2023-04-29T09:22:01;17;15;
60245;PMS5003;46107;53.356;-1.524;2023-04-29T09:24:30;15;15;
60245;PMS5003;46107;53.356;-1.524;2023-04-29T09:26:58;20;18;
60245;PMS5003;46107;53.356;-1.524;2023-04-29T09:29:25;18;16;
60245;PMS5003;46107;53.356;-1.524;2023-04-29T09:31:54;19;17;
60245;PMS5003;46107;53.356;-1.524;2023-04-29T09:34:29;21;18;
60245;PMS5003;46107;53.356;-1.524;2023-04-29T09:36:58;20;18;
60245;PMS5003;46107;53.356;-1.524;2023-04-29T09:39:25;15;15;
60245;PMS5003;46107;53.356;-1.524;2023-04-29T09:42:03;14;12;
60245;PMS5003;46107;53.356;-1.524;2023-04-29T09:44:40;16;14;
60245;PMS5003;46107;53.356;-1.524;2023-04-29T09:47:08;16;13;
60245;PMS5003;46107;53.356;-1.524;2023-04-29T09:49:36;9;9;
60245;PMS5003;46107;53.356;-1.524;2023-04-29T09:52:05;12;12;
60245;PMS5003;46107;53.356;-1.524;2023-04-29T09:54:35;13;13;
60245;PMS5003;46107;53.356;-1.524;2023-04-29T09:57:04;12;10;
60245;PMS5003;46107;53.356;-1.524;2023-04-29T09:59:33;10;10;
60245;PMS5003;46107;53.356;-1.524;2023-04-29T10:02:05;11;11;
60245;PMS5003;46107;53.356;-1.524;2023-04-29T10:04:37;14;14;
60245;PMS5003;46107;53.356;-1.524;2023-04-29T10:07:07;12;12;
60245;PMS5003;46107;53.356;-1.524;2023-04-29T10:09:39;10;10;
60245;PMS5003;46107;53.356;-1.524;2023-04-29T10:12:07;13;13;
60245;PMS5003;46107;53.356;-1.524;2023-04-29T10:14:36;14;14;
60245;PMS5003;46107;53.356;-1.524;2023-04-29T10:17:13;15;15;
60245;PMS5003;46107;53.356;-1.524;2023-04-29T10:19:51;17;14;
60245;PMS5003;46107;53.356;-1.524;2023-04-29T10:22:25;13;13;
60245;PMS5003;46107;53.356;-1.524;2023-04-29T10:25:00;13;13;
60245;PMS5003;46107;53.356;-1.524;2023-04-29T10:27:29;16;16;
60245;PMS5003;46107;53.356;-1.524;2023-04-29T10:29:59;15;15;
60245;PMS5003;46107;53.356;-1.524;2023-04-29T10:32:28;12;12;
60245;PMS5003;46107;53.356;-1.524;2023-04-29T10:34:56;15;15;
60245;PMS5003;46107;53.356;-1.524;2023-04-29T10:37:25;15;13;
60245;PMS5003;46107;53.356;-1.524;2023-04-29T10:39:54;14;13;
60245;PMS5003;46107;53.356;-1.524;2023-04-29T10:42:30;14;14;
60245;PMS5003;46107;53.356;-1.524;2023-04-29T10:45:22;12;12;
60245;PMS5003;46107;53.356;-1.524;2023-04-29T10:48:22;15;13;
60245;PMS5003;46107;53.356;-1.524;2023-04-29T10:51:06;11;11;
60245;PMS5003;46107;53.356;-1.524;2023-04-29T10:53:34;13;13;
60245;PMS5003;46107;53.356;-1.524;2023-04-29T10:56:04;14;14;
60245;PMS5003;46107;53.356;-1.524;2023-04-29T10:58:35;12;11;
60245;PMS5003;46107;53.356;-1.524;2023-04-29T11:01:04;15;14;
60245;PMS5003;46107;53.356;-1.524;2023-04-29T11:03:44;12;12;
60245;PMS5003;46107;53.356;-1.524;2023-04-29T11:06:14;13;12;
60245;PMS5003;46107;53.356;-1.524;2023-04-29T11:09:01;12;12;
60245;PMS5003;46107;53.356;-1.524;2023-04-29T11:12:07;13;12;
60245;PMS5003;46107;53.356;-1.524;2023-04-29T11:14:36;13;11;
60245;PMS5003;46107;53.356;-1.524;2023-04-29T11:17:07;13;13;
60245;PMS5003;46107;53.356;-1.524;2023-04-29T11:19:38;12;10;
60245;PMS5003;46107;53.356;-1.524;2023-04-29T11:22:09;17;12;
60245;PMS5003;46107;53.356;-1.524;2023-04-29T11:24:48;14;12;
60245;PMS5003;46107;53.356;-1.524;2023-04-29T11:27:17;9;9;
60245;PMS5003;46107;53.356;-1.524;2023-04-29T11:29:46;10;9;
60245;PMS5003;46107;53.356;-1.524;2023-04-29T11:32:13;9;9;
60245;PMS5003;46107;53.356;-1.524;2023-04-29T11:34:41;8;8;
60245;PMS5003;46107;53.356;-1.524;2023-04-29T11:37:09;9;7;
60245;PMS5003;46107;53.356;-1.524;2023-04-29T11:39:36;9;9;
60245;PMS5003;46107;53.356;-1.524;2023-04-29T11:42:04;8;8;
60245;PMS5003;46107;53.356;-1.524;2023-04-29T11:44:33;12;10;
60245;PMS5003;46107;53.356;-1.524;2023-04-29T11:47:02;7;7;
60245;PMS5003;46107;53.356;-1.524;2023-04-29T11:49:30;13;11;
60245;PMS5003;46107;53.356;-1.524;2023-04-29T11:51:58;11;11;
60245;PMS5003;46107;53.356;-1.524;2023-04-29T11:54:26;10;9;
60245;PMS5003;46107;53.356;-1.524;2023-04-29T11:57:00;10;10;
60245;PMS5003;46107;53.356;-1.524;2023-04-29T11:59:28;12;11;
60245;PMS5003;46107;53.356;-1.524;2023-04-29T12:01:58;15;15;
60245;PMS5003;46107;53.356;-1.524;2023-04-29T12:04:25;16;14;
60245;PMS5003;46107;53.356;-1.524;2023-04-29T12:06:55;9;9;
60245;PMS5003;46107;53.356;-1.524;2023-04-29T12:09:23;12;11;
60245;PMS5003;46107;53.356;-1.524;2023-04-29T12:11:51;14;12;
60245;PMS5003;46107;53.356;-1.524;2023-04-29T12:14:19;11;9;
60245;PMS5003;46107;53.356;-1.524;2023-04-29T12:16:46;10;9;
60245;PMS5003;46107;53.356;-1.524;2023-04-29T12:19:14;14;12;
60245;PMS5003;46107;53.356;-1.524;2023-04-29T12:21:47;12;11;
60245;PMS5003;46107;53.356;-1.524;2023-04-29T12:24:20;13;11;
60245;PMS5003;46107;53.356;-1.524;2023-04-29T12:26:48;14;13;
60245;PMS5003;46107;53.356;-1.524;2023-04-29T12:29:15;13;13;
60245;PMS5003;46107;53.356;-1.524;2023-04-29T12:31:46;12;12;
60245;PMS5003;46107;53.356;-1.524;2023-04-29T12:34:14;15;14;
60245;PMS5003;46107;53.356;-1.524;2023-04-29T12:36:42;15;13;
60245;PMS5003;46107;53.356;-1.524;2023-04-29T12:39:10;14;14;
60245;PMS5003;46107;53.356;-1.524;2023-04-29T12:41:38;18;17;
60245;PMS5003;46107;53.356;-1.524;2023-04-29T12:44:07;16;15;
60245;PMS5003;46107;53.356;-1.524;2023-04-29T12:46:35;15;13;
60245;PMS5003;46107;53.356;-1.524;2023-04-29T12:49:04;18;17;
60245;PMS5003;46107;53.356;-1.524;2023-04-29T12:51:32;20;20;
60245;PMS5003;46107;53.356;-1.524;2023-04-29T12:54:01;34;30;
60245;PMS5003;46107;53.356;-1.524;2023-04-29T12:56:30;28;25;
60245;PMS5003;46107;53.356;-1.524;2023-04-29T12:59:03;22;21;
60245;PMS5003;46107;53.356;-1.524;2023-04-29T13:01:31;19;19;
60245;PMS5003;46107;53.356;-1.524;2023-04-29T13:03:59;26;24;
60245;PMS5003;46107;53.356;-1.524;2023-04-29T13:06:26;25;24;
60245;PMS5003;46107;53.356;-1.524;2023-04-29T13:08:55;21;21;
60245;PMS5003;46107;53.356;-1.524;2023-04-29T13:11:22;22;22;
60245;PMS5003;46107;53.356;-1.524;2023-04-29T13:13:54;21;19;
60245;PMS5003;46107;53.356;-1.524;2023-04-29T13:16:22;23;21;
60245;PMS5003;46107;53.356;-1.524;2023-04-29T13:18:49;21;20;
60245;PMS5003;46107;53.356;-1.524;2023-04-29T13:21:17;24;24;
60245;PMS5003;46107;53.356;-1.524;2023-04-29T13:23:45;27;26;
60245;PMS5003;46107;53.356;-1.524;2023-04-29T13:26:12;26;25;
60245;PMS5003;46107;53.356;-1.524;2023-04-29T13:28:39;27;25;
60245;PMS5003;46107;53.356;-1.524;2023-04-29T13:31:07;24;24;
60245;PMS5003;46107;53.356;-1.524;2023-04-29T13:33:35;27;26;
60245;PMS5003;46107;53.356;-1.524;2023-04-29T13:36:03;34;34;
60245;PMS5003;46107;53.356;-1.524;2023-04-29T13:38:31;29;29;
60245;PMS5003;46107;53.356;-1.524;2023-04-29T13:40:58;39;36;
60245;PMS5003;46107;53.356;-1.524;2023-04-29T13:43:26;36;33;
60245;PMS5003;46107;53.356;-1.524;2023-04-29T13:45:54;35;32;
60245;PMS5003;46107;53.356;-1.524;2023-04-29T13:48:21;36;33;
60245;PMS5003;46107;53.356;-1.524;2023-04-29T13:50:49;37;34;
60245;PMS5003;46107;53.356;-1.524;2023-04-29T13:53:16;39;37;
60245;PMS5003;46107;53.356;-1.524;2023-04-29T13:55:44;33;31;
60245;PMS5003;46107;53.356;-1.524;2023-04-29T13:58:12;42;39;
60245;PMS5003;46107;53.356;-1.524;2023-04-29T14:00:40;40;37;
60245;PMS5003;46107;53.356;-1.524;2023-04-29T14:03:07;33;30;
60245;PMS5003;46107;53.356;-1.524;2023-04-29T14:05:35;39;37;
60245;PMS5003;46107;53.356;-1.524;2023-04-29T14:08:02;38;34;
60245;PMS5003;46107;53.356;-1.524;2023-04-29T14:10:30;35;34;
60245;PMS5003;46107;53.356;-1.524;2023-04-29T14:12:57;30;29;
60245;PMS5003;46107;53.356;-1.524;2023-04-29T14:15:25;36;32;
60245;PMS5003;46107;53.356;-1.524;2023-04-29T14:17:54;32;30;
60245;PMS5003;46107;53.356;-1.524;2023-04-29T14:20:21;35;33;
60245;PMS5003;46107;53.356;-1.524;2023-04-29T14:22:48;27;26;
60245;PMS5003;46107;53.356;-1.524;2023-04-29T14:25:16;31;31;
60245;PMS5003;46107;53.356;-1.524;2023-04-29T14:27:44;35;33;
60245;PMS5003;46107;53.356;-1.524;2023-04-29T14:30:12;38;36;
60245;PMS5003;46107;53.356;-1.524;2023-04-29T14:32:40;35;32;
60245;PMS5003;46107;53.356;-1.524;2023-04-29T14:35:08;33;30;
60245;PMS5003;46107;53.356;-1.524;2023-04-29T14:37:36;28;28;
60245;PMS5003;46107;53.356;-1.524;2023-04-29T14:40:04;31;29;
60245;PMS5003;46107;53.356;-1.524;2023-04-29T14:42:33;27;27;
60245;PMS5003;46107;53.356;-1.524;2023-04-29T14:45:01;32;30;
60245;PMS5003;46107;53.356;-1.524;2023-04-29T14:47:29;28;28;
60245;PMS5003;46107;53.356;-1.524;2023-04-29T14:49:57;42;37;
60245;PMS5003;46107;53.356;-1.524;2023-04-29T14:52:25;33;33;
60245;PMS5003;46107;53.356;-1.524;2023-04-29T14:54:52;36;32;
60245;PMS5003;46107;53.356;-1.524;2023-04-29T14:57:20;47;42;
60245;PMS5003;46107;53.356;-1.524;2023-04-29T14:59:48;29;29;
60245;PMS5003;46107;53.356;-1.524;2023-04-29T15:02:16;31;25;
60245;PMS5003;46107;53.356;-1.524;2023-04-29T15:04:43;31;29;
60245;PMS5003;46107;53.356;-1.524;2023-04-29T15:07:11;30;28;
60245;PMS5003;46107;53.356;-1.524;2023-04-29T15:09:39;37;36;
60245;PMS5003;46107;53.356;-1.524;2023-04-29T15:12:07;35;31;
60245;PMS5003;46107;53.356;-1.524;2023-04-29T15:14:34;28;26;
60245;PMS5003;46107;53.356;-1.524;2023-04-29T15:17:03;33;28;
60245;PMS5003;46107;53.356;-1.524;2023-04-29T15:19:30;38;36;
60245;PMS5003;46107;53.356;-1.524;2023-04-29T15:21:58;28;27;
60245;PMS5003;46107;53.356;-1.524;2023-04-29T15:24:25;36;33;
60245;PMS5003;46107;53.356;-1.524;2023-04-29T15:26:53;31;29;
60245;PMS5003;46107;53.356;-1.524;2023-04-29T15:29:21;32;30;
60245;PMS5003;46107;53.356;-1.524;2023-04-29T15:31:49;34;34;
60245;PMS5003;46107;53.356;-1.524;2023-04-29T15:34:17;32;30;
60245;PMS5003;46107;53.356;-1.524;2023-04-29T15:36:45;31;30;
60245;PMS5003;46107;53.356;-1.524;2023-04-29T15:39:13;35;34;
60245;PMS5003;46107;53.356;-1.524;2023-04-29T15:41:41;39;36;
60245;PMS5003;46107;53.356;-1.524;2023-04-29T15:44:08;28;26;
60245;PMS5003;46107;53.356;-1.524;2023-04-29T15:46:35;33;31;
60245;PMS5003;46107;53.356;-1.524;2023-04-29T15:49:03;40;40;
60245;PMS5003;46107;53.356;-1.524;2023-04-29T15:51:30;34;32;
60245;PMS5003;46107;53.356;-1.524;2023-04-29T15:53:58;38;35;
60245;PMS5003;46107;53.356;-1.524;2023-04-29T15:56:26;35;32;
60245;PMS5003;46107;53.356;-1.524;2023-04-29T15:58:55;37;33;
60245;PMS5003;46107;53.356;-1.524;2023-04-29T16:01:23;38;35;
60245;PMS5003;46107;53.356;-1.524;2023-04-29T16:03:50;43;38;
60245;PMS5003;46107;53.356;-1.524;2023-04-29T16:06:18;38;37;
60245;PMS5003;46107;53.356;-1.524;2023-04-29T16:08:45;36;33;
60245;PMS5003;46107;53.356;-1.524;2023-04-29T16:11:12;33;29;
60245;PMS5003;46107;53.356;-1.524;2023-04-29T16:13:40;35;31;
60245;PMS5003;46107;53.356;-1.524;2023-04-29T16:16:08;33;29;